Time;durP1;ratioP1;P1;durP2;ratioP2;P2;SDS_P1;SDS_P2;PMS_P1;PMS_P2;Temp;Humidity;BMP_temperature;BMP_pressure;BME280_temperature;BME280_humidity;BME280_pressure;Samples;Min_cycle;Max_cycle;Signal;HPM_P1;HPM_P2
2023/10/29 00:04:39;;;;;;;35.40;20.93;;;;;;;9.05;100.00;99644.48;5252729;54;1141012;-74
2023/10/29 00:09:45;;;;;;;29.97;20.47;;;;;;;9.05;100.00;99655.52;5252800;54;1141189;-72
2023/10/29 00:14:58;;;;;;;38.47;22.20;;;;;;;9.05;100.00;99647.12;5059494;56;1140954;-76
2023/10/29 00:20:07;;;;;;;44.13;22.23;;;;;;;9.06;100.00;99649.27;5021587;57;1140810;-74
2023/10/29 00:25:13;;;;;;;58.60;27.85;;;;;;;9.05;100.00;99641.84;4988233;57;1141183;-69
2023/10/29 00:30:19;;;;;;;90.45;43.10;;;;;;;9.06;100.00;99651.42;4982451;57;1140823;-74
2023/10/29 00:35:24;;;;;;;60.40;31.95;;;;;;;9.08;100.00;99646.86;5061078;56;1141007;-73
2023/10/29 00:40:30;;;;;;;167.37;53.85;;;;;;;9.09;100.00;99637.15;4883448;57;1140955;-71
2023/10/29 00:45:37;;;;;;;44.10;24.30;;;;;;;9.08;100.00;99637.63;5117215;55;1142968;-74
2023/10/29 00:50:43;;;;;;;75.90;36.43;;;;;;;9.10;100.00;99638.34;5185176;55;1141001;-74
2023/10/29 00:55:49;;;;;;;52.03;27.73;;;;;;;9.11;100.00;99631.27;5188047;55;1140791;-72
2023/10/29 01:00:55;;;;;;;49.93;24.20;;;;;;;9.08;100.00;99627.08;5164459;55;1141462;-72
2023/10/29 01:06:01;;;;;;;43.33;25.33;;;;;;;9.07;100.00;99639.91;5164346;55;1141027;-76
2023/10/29 01:11:07;;;;;;;32.93;20.17;;;;;;;9.04;100.00;99630.09;5184640;55;1140977;-72
2023/10/29 01:16:12;;;;;;;30.93;19.67;;;;;;;9.05;100.00;99617.27;5164285;55;1140880;-77
2023/10/29 01:21:18;;;;;;;27.10;18.40;;;;;;;9.06;100.00;99621.09;5141923;55;1140744;-76
2023/10/29 01:26:24;;;;;;;30.15;18.50;;;;;;;9.09;100.00;99623.48;5184389;55;1140902;-73
2023/10/29 01:31:29;;;;;;;27.80;18.07;;;;;;;9.13;100.00;99618.30;5162784;55;1140956;-73
2023/10/29 01:36:35;;;;;;;27.63;18.40;;;;;;;9.15;100.00;99622.97;5077994;56;1140932;-71
2023/10/29 01:41:42;;;;;;;28.35;17.60;;;;;;;9.15;100.00;99626.92;5094198;56;1140901;-74
2023/10/29 01:46:47;;;;;;;27.87;19.23;;;;;;;9.16;100.00;99626.44;5000907;57;1141036;-74
2023/10/29 01:51:53;;;;;;;31.20;18.50;;;;;;;9.17;100.00;99616.20;4996559;56;1141109;-74
2023/10/29 01:56:58;;;;;;;37.33;20.93;;;;;;;9.18;100.00;99620.03;5050197;56;1140907;-75
2023/10/29 02:02:05;;;;;;;29.20;19.20;;;;;;;9.20;100.00;99615.95;5128657;56;1141009;-74
2023/10/29 02:07:10;;;;;;;30.50;19.00;;;;;;;9.20;100.00;99614.63;5164281;55;1140915;-71
2023/10/29 02:12:17;;;;;;;35.73;20.00;;;;;;;9.21;100.00;99621.58;5164353;55;1140770;-72
2023/10/29 02:17:25;;;;;;;34.67;20.88;;;;;;;9.25;100.00;99620.36;5145541;56;1140785;-73
2023/10/29 02:22:29;;;;;;;37.10;22.00;;;;;;;9.23;100.00;99622.77;5118293;56;1140846;-73
2023/10/29 02:27:35;;;;;;;39.67;23.83;;;;;;;9.28;100.00;99616.62;5163312;55;1141147;-71
2023/10/29 02:32:41;;;;;;;37.40;18.60;;;;;;;9.30;100.00;99611.57;5183664;55;1140984;-73
2023/10/29 02:37:46;;;;;;;26.30;18.73;;;;;;;9.31;100.00;99603.17;5163767;55;1140983;-75
2023/10/29 02:42:52;;;;;;;33.57;20.90;;;;;;;9.32;100.00;99603.01;5160736;55;1141166;-70
2023/10/29 02:47:57;;;;;;;32.47;19.70;;;;;;;9.34;100.00;99585.72;5099588;56;1140787;-71
2023/10/29 02:53:03;;;;;;;33.37;20.57;;;;;;;9.33;100.00;99587.53;5164298;55;1140907;-74
2023/10/29 02:58:08;;;;;;;33.97;22.60;;;;;;;9.32;100.00;99589.02;5011078;57;1141046;-73
2023/10/29 03:03:14;;;;;;;35.93;21.73;;;;;;;9.31;100.00;99597.41;5184357;56;1140924;-74
2023/10/29 03:08:20;;;;;;;36.55;20.75;;;;;;;9.29;100.00;99593.23;5163684;55;1140686;-72
2023/10/29 03:13:26;;;;;;;34.80;19.87;;;;;;;9.27;100.00;99610.52;5163703;55;1141205;-71
2023/10/29 03:18:31;;;;;;;33.70;22.58;;;;;;;9.26;100.00;99602.24;5184485;55;1140821;-71
2023/10/29 03:23:37;;;;;;;34.13;21.42;;;;;;;9.26;100.00;99611.95;5164213;55;1140811;-73
2023/10/29 03:28:42;;;;;;;37.47;21.10;;;;;;;9.27;100.00;99619.74;5080837;56;1140962;-75
2023/10/29 03:33:48;;;;;;;32.05;20.32;;;;;;;9.31;100.00;99613.24;5078202;56;1140906;-76
2023/10/29 03:43:57;;;;;;;31.00;20.40;;;;;;;9.36;100.00;99633.93;5225281;55;46833;-74
2023/10/29 03:49:02;;;;;;;31.43;20.40;;;;;;;9.34;100.00;99639.34;4944630;56;1136915;-75
2023/10/29 03:54:08;;;;;;;30.37;19.07;;;;;;;9.32;100.00;99637.31;5019493;56;1140706;-72
2023/10/29 03:59:14;;;;;;;25.87;18.60;;;;;;;9.28;100.00;99622.73;5037033;56;1141064;-72
2023/10/29 04:04:20;;;;;;;31.30;19.30;;;;;;;9.23;100.00;99617.49;5097842;56;1141385;-72
2023/10/29 04:09:26;;;;;;;33.85;20.45;;;;;;;9.20;100.00;99615.95;5130557;56;1140907;-74
2023/10/29 04:14:31;;;;;;;30.57;19.62;;;;;;;9.17;100.00;99618.36;5057121;56;1140958;-73
2023/10/29 04:19:37;;;;;;;29.97;19.33;;;;;;;9.12;100.00;99629.81;5056780;57;1140894;-70
2023/10/29 04:24:43;;;;;;;26.10;16.73;;;;;;;9.09;100.00;99626.11;5133568;56;1140926;-69
2023/10/29 04:29:49;;;;;;;24.70;18.10;;;;;;;9.10;100.00;99638.82;5159640;56;1141013;-71
2023/10/29 04:34:54;;;;;;;28.57;19.17;;;;;;;9.09;100.00;99635.34;5141434;56;1141015;-74
2023/10/29 04:40:00;;;;;;;27.52;16.02;;;;;;;9.09;100.00;99630.55;5141771;56;1141081;-69
2023/10/29 04:45:06;;;;;;;26.50;15.70;;;;;;;9.08;100.00;99627.56;5049446;56;1140834;-74
2023/10/29 04:50:12;;;;;;;23.60;16.13;;;;;;;9.06;100.00;99630.33;4975896;56;1141079;-71
2023/10/29 04:55:18;;;;;;;25.40;14.33;;;;;;;9.02;100.00;99630.70;4979879;57;1140951;-73
2023/10/29 05:00:23;;;;;;;28.55;15.58;;;;;;;8.96;100.00;99631.25;5029975;55;1140967;-71
2023/10/29 05:05:30;;;;;;;18.32;13.25;;;;;;;8.92;100.00;99622.76;5028340;57;1141015;-74
2023/10/29 05:10:36;;;;;;;22.77;14.63;;;;;;;8.89;100.00;99612.46;4973506;58;1141102;-71
2023/10/29 05:15:43;;;;;;;20.65;13.85;;;;;;;8.89;100.00;99607.19;4988753;57;1140946;-74
2023/10/29 05:20:48;;;;;;;25.37;14.57;;;;;;;8.88;100.00;99598.09;5006897;56;1140912;-74
2023/10/29 05:25:54;;;;;;;25.83;15.17;;;;;;;8.87;100.00;99589.83;5105048;56;1141110;-75
2023/10/29 05:31:00;;;;;;;21.45;13.62;;;;;;;8.86;100.00;99587.67;5055892;56;1140990;-70
2023/10/29 05:36:06;;;;;;;20.37;11.50;;;;;;;8.89;100.00;99587.89;5063517;57;1140949;-72
2023/10/29 05:41:13;;;;;;;24.20;11.23;;;;;;;8.90;100.00;99590.88;4997166;56;1140933;-74
2023/10/29 05:46:22;;;;;;;22.32;11.92;;;;;;;8.93;100.00;99586.19;5046856;56;1140908;-73
2023/10/29 05:51:27;;;;;;;27.13;17.33;;;;;;;8.94;100.00;99577.80;5076967;56;1140911;-74
2023/10/29 05:56:33;;;;;;;30.45;15.23;;;;;;;8.95;100.00;99583.42;5089862;56;1140798;-71
2023/10/29 06:01:38;;;;;;;31.73;18.17;;;;;;;8.97;100.00;99593.36;5095770;56;1140880;-70
2023/10/29 06:06:44;;;;;;;60.40;30.32;;;;;;;8.98;100.00;99604.27;5071636;56;1140839;-75
2023/10/29 06:11:49;;;;;;;34.30;18.87;;;;;;;8.97;100.00;99598.64;5075455;56;1141211;-73
2023/10/29 06:16:58;;;;;;;13.93;9.90;;;;;;;8.98;100.00;99595.03;5053760;56;1141026;-70
2023/10/29 06:22:06;;;;;;;20.97;12.90;;;;;;;8.98;100.00;99591.92;5108994;56;1138651;-73
2023/10/29 06:27:11;;;;;;;32.67;20.73;;;;;;;9.00;100.00;99593.95;5111111;56;1140873;-74
2023/10/29 06:32:16;;;;;;;19.77;11.47;;;;;;;9.02;100.00;99592.47;5065866;56;1140851;-70
2023/10/29 06:37:22;;;;;;;18.23;10.77;;;;;;;9.04;100.00;99595.81;5063821;56;1140858;-71
2023/10/29 06:42:28;;;;;;;15.33;10.17;;;;;;;9.04;100.00;99590.05;5097450;56;1140930;-74
2023/10/29 06:47:33;;;;;;;15.97;10.43;;;;;;;9.05;100.00;99593.53;5054774;56;1140828;-72
2023/10/29 06:52:39;;;;;;;181.53;50.80;;;;;;;9.06;100.00;99592.08;5076473;56;1141303;-74
2023/10/29 06:57:44;;;;;;;74.72;32.93;;;;;;;9.09;100.00;99589.67;4965053;58;1143165;-72
2023/10/29 07:02:50;;;;;;;19.67;13.07;;;;;;;9.08;100.00;99586.20;5067108;57;1140778;-74
2023/10/29 07:07:56;;;;;;;22.90;12.13;;;;;;;9.11;100.00;99577.19;5046967;56;1141042;-71
2023/10/29 07:13:01;;;;;;;169.90;104.60;;;;;;;8.99;100.00;99552.72;5115819;56;1141254;-74
2023/10/29 07:18:07;;;;;;;65.13;38.53;;;;;;;9.10;100.00;99568.92;5145651;56;1145452;-72
2023/10/29 07:23:13;;;;;;;109.43;66.80;;;;;;;9.11;100.00;99567.47;5074366;56;1141517;-70
2023/10/29 07:28:20;;;;;;;45.87;26.97;;;;;;;9.13;100.00;99561.58;5108133;56;1143737;-76
2023/10/29 07:33:26;;;;;;;22.70;11.50;;;;;;;9.17;100.00;99559.01;5118821;56;1140908;-72
2023/10/29 07:38:31;;;;;;;19.17;11.67;;;;;;;9.21;100.00;99553.47;5091337;56;1141049;-72
2023/10/29 07:43:37;;;;;;;20.30;12.00;;;;;;;9.24;100.00;99553.20;5050206;56;1181349;-71
2023/10/29 07:48:43;;;;;;;15.15;9.45;;;;;;;9.26;100.00;99529.69;5050388;57;1141046;-73
2023/10/29 07:53:49;;;;;;;14.30;9.23;;;;;;;9.27;100.00;99530.52;5116454;56;1138773;-75
2023/10/29 07:58:55;;;;;;;26.10;10.90;;;;;;;9.30;100.00;99525.81;5116664;56;1138862;-73
2023/10/29 08:04:00;;;;;;;14.45;9.10;;;;;;;9.35;100.00;99532.81;5044146;56;1141074;-70
2023/10/29 08:09:06;;;;;;;27.00;10.40;;;;;;;9.40;100.00;99533.26;5067855;56;1139097;-75
2023/10/29 08:14:12;;;;;;;27.73;13.50;;;;;;;9.44;100.00;99534.66;5045485;56;1140928;-71
2023/10/29 08:19:17;;;;;;;16.37;8.70;;;;;;;9.47;100.00;99530.41;5047420;56;1141207;-73
2023/10/29 08:24:23;;;;;;;17.95;9.30;;;;;;;9.52;100.00;99536.61;5080415;56;1139137;-76
2023/10/29 08:29:29;;;;;;;13.88;10.05;;;;;;;9.57;100.00;99521.69;5083234;56;1138960;-74
2023/10/29 08:34:34;;;;;;;18.47;9.57;;;;;;;9.64;100.00;99532.03;5041295;57;1141147;-75
2023/10/29 08:39:40;;;;;;;11.08;7.85;;;;;;;9.72;100.00;99538.80;5063514;57;1138939;-73
2023/10/29 08:44:46;;;;;;;18.20;11.53;;;;;;;9.79;100.00;99546.02;5039314;57;1138817;-76
2023/10/29 08:49:52;;;;;;;16.40;10.50;;;;;;;9.87;100.00;99530.81;5060799;56;1141390;-75
2023/10/29 08:54:57;;;;;;;8.63;6.03;;;;;;;9.95;100.00;99540.19;5151886;56;1140908;-72
2023/10/29 09:00:03;;;;;;;16.03;8.70;;;;;;;10.03;100.00;99538.19;5075220;56;1136720;-72
2023/10/29 09:05:10;;;;;;;7.07;4.97;;;;;;;10.10;100.00;99529.55;5102778;56;1141132;-74
2023/10/29 09:10:15;;;;;;;11.50;6.63;;;;;;;10.19;100.00;99534.05;5137199;56;1138839;-71
2023/10/29 09:15:21;;;;;;;16.53;5.03;;;;;;;10.29;100.00;99516.84;5128606;56;1140935;-74
2023/10/29 09:20:26;;;;;;;14.70;6.60;;;;;;;10.39;100.00;99512.88;5130668;56;1140963;-71
2023/10/29 09:25:32;;;;;;;7.97;5.00;;;;;;;10.50;100.00;99518.83;5139528;56;1141096;-76
2023/10/29 09:30:38;;;;;;;13.27;5.57;;;;;;;10.61;100.00;99515.66;5068082;56;1138983;-74
2023/10/29 09:35:44;;;;;;;18.57;6.57;;;;;;;10.70;100.00;99520.08;5038254;57;1141659;-75
2023/10/29 09:40:51;;;;;;;16.23;8.25;;;;;;;10.77;100.00;99514.08;5048898;56;1141458;-75
2023/10/29 09:45:58;;;;;;;31.90;13.38;;;;;;;10.87;100.00;99506.93;5114900;56;1141001;-74
2023/10/29 09:51:06;;;;;;;18.83;13.83;;;;;;;10.96;100.00;99518.47;5053176;56;1143056;-73
2023/10/29 09:56:17;;;;;;;21.57;10.27;;;;;;;11.01;100.00;99521.48;5098303;56;1143021;-74
2023/10/29 10:01:20;;;;;;;27.67;13.83;;;;;;;11.07;100.00;99510.33;5063728;56;1143097;-74
2023/10/29 10:06:27;;;;;;;13.58;7.22;;;;;;;11.15;100.00;99507.77;5034516;57;1142968;-69
2023/10/29 10:11:33;;;;;;;15.45;8.08;;;;;;;11.22;100.00;99502.24;5041334;57;1140861;-72
2023/10/29 10:16:39;;;;;;;18.80;7.90;;;;;;;11.31;100.00;99501.00;5059658;57;1141314;-70
2023/10/29 10:21:47;;;;;;;21.63;7.90;;;;;;;11.39;100.00;99494.48;5060076;56;1141037;-74
2023/10/29 10:26:53;;;;;;;12.00;6.10;;;;;;;11.45;100.00;99484.14;5078973;56;1141207;-75
2023/10/29 10:32:06;;;;;;;8.00;4.40;;;;;;;11.53;100.00;99472.30;5046809;57;1141841;-71
2023/10/29 10:37:11;;;;;;;;;;;;;;;11.60;100.00;99469.41;5062556;57;1139019;-75
2023/10/29 10:42:26;;;;;;;8.53;4.00;;;;;;;11.66;100.00;99464.46;5077060;56;976376;-75
2023/10/29 10:47:32;;;;;;;12.87;4.03;;;;;;;11.70;100.00;99456.07;5125960;56;1136988;-73
2023/10/29 10:52:38;;;;;;;7.43;4.37;;;;;;;11.72;100.00;99458.08;5147960;56;1141043;-71
2023/10/29 10:57:45;;;;;;;9.93;5.60;;;;;;;11.74;100.00;99453.95;5063570;56;1139111;-75
2023/10/29 11:02:52;;;;;;;13.50;6.27;;;;;;;11.77;100.00;99459.79;5125736;56;1139948;-72
2023/10/29 11:08:02;;;;;;;66.77;35.13;;;;;;;11.79;100.00;99463.61;5170699;56;1141060;-72
2023/10/29 11:13:21;;;;;;;18.80;12.93;;;;;;;11.82;100.00;99463.31;5119271;56;1143183;-75
2023/10/29 11:18:37;;;;;;;46.80;25.57;;;;;;;11.88;100.00;99450.30;5082627;56;1143379;-73
2023/10/29 11:23:38;;;;;;;31.27;17.10;;;;;;;11.91;100.00;99455.30;5111267;56;1142978;-75
2023/10/29 11:28:45;;;;;;;15.67;7.23;;;;;;;11.96;100.00;99464.92;5127219;56;1143182;-74
2023/10/29 11:34:00;;;;;;;19.40;5.57;;;;;;;12.00;100.00;99469.92;5121366;56;1141166;-74
2023/10/29 11:39:31;;;;;;;12.63;6.47;;;;;;;12.03;100.00;99453.72;5099100;56;1141114;-73
2023/10/29 11:44:36;;;;;;;13.58;6.97;;;;;;;12.03;100.00;99447.09;5046489;57;1141380;-74
2023/10/29 11:49:53;;;;;;;9.38;5.67;;;;;;;12.05;100.00;99438.02;5046062;57;1141105;-71
2023/10/29 11:55:05;;;;;;;15.17;6.73;;;;;;;12.06;100.00;99429.57;5051234;56;1138805;-74
2023/10/29 12:00:13;;;;;;;8.45;5.05;;;;;;;12.03;100.00;99410.83;5074675;56;1140843;-72
2023/10/29 12:05:18;;;;;;;7.50;4.50;;;;;;;12.03;100.00;99406.86;5037838;56;1138899;-73
2023/10/29 12:10:24;;;;;;;10.30;4.20;;;;;;;12.02;100.00;99369.91;5051836;56;1138704;-76
2023/10/29 12:15:29;;;;;;;14.47;6.57;;;;;;;12.01;100.00;99353.67;4967502;58;1140883;-72
2023/10/29 12:20:35;;;;;;;241.57;159.87;;;;;;;12.00;100.00;99366.09;5070083;56;1140944;-73
2023/10/29 12:25:41;;;;;;;19.00;12.53;;;;;;;12.03;100.00;99370.25;5072593;56;1147298;-72
2023/10/29 12:30:49;;;;;;;24.63;8.00;;;;;;;12.06;100.00;99360.17;5076162;56;1143253;-71
2023/10/29 12:35:58;;;;;;;10.47;4.33;;;;;;;12.12;100.00;99341.47;4965934;58;1141010;-74
2023/10/29 12:41:14;;;;;;;10.67;4.47;;;;;;;12.18;100.00;99351.45;5055254;56;1140954;-74
2023/10/29 12:46:26;;;;;;;9.50;4.93;;;;;;;12.26;100.00;99349.66;5053651;56;1140772;-75
2023/10/29 12:51:37;;;;;;;30.90;11.10;;;;;;;12.33;100.00;99346.73;5068632;56;1191798;-74
2023/10/29 12:57:11;;;;;;;45.90;25.35;;;;;;;12.40;100.00;99344.25;5076257;56;1157455;-72
2023/10/29 13:02:09;;;;;;;14.60;7.93;;;;;;;12.45;100.00;99343.29;5121778;56;1143045;-77
2023/10/29 13:07:17;;;;;;;15.07;6.60;;;;;;;12.52;100.00;99350.12;5083475;56;1140872;-73
2023/10/29 13:12:22;;;;;;;7.67;4.47;;;;;;;12.58;100.00;99338.86;5080383;56;1141219;-72
2023/10/29 13:17:28;;;;;;;10.13;5.97;;;;;;;12.63;100.00;99339.22;5042202;56;1139063;-70
2023/10/29 13:22:34;;;;;;;9.73;5.10;;;;;;;12.66;100.00;99350.34;5064027;56;1141022;-74
2023/10/29 13:27:41;;;;;;;14.87;6.15;;;;;;;12.72;100.00;99349.34;5080938;56;1138926;-76
2023/10/29 13:32:47;;;;;;;17.70;8.73;;;;;;;12.76;100.00;99354.67;5041101;56;1141247;-76
2023/10/29 13:37:53;;;;;;;20.12;13.05;;;;;;;12.88;100.00;99355.53;5074223;56;1140957;-73
2023/10/29 13:43:00;;;;;;;61.00;29.57;;;;;;;12.98;100.00;99360.22;5061254;56;1143095;-79
2023/10/29 13:48:07;;;;;;;68.77;29.10;;;;;;;13.07;100.00;99371.67;5061716;56;1143218;-73
2023/10/29 13:53:12;;;;;;;101.83;41.63;;;;;;;13.04;100.00;99351.59;5126787;56;1142997;-75
2023/10/29 13:58:18;;;;;;;258.73;102.43;;;;;;;13.02;100.00;99351.41;5134217;56;1145138;-71
2023/10/29 14:03:23;;;;;;;48.97;16.90;;;;;;;12.97;100.00;99350.59;5117285;56;1147280;-75
2023/10/29 14:08:29;;;;;;;40.47;17.33;;;;;;;12.95;100.00;99341.96;5137507;56;1143638;-75
2023/10/29 14:13:35;;;;;;;13.03;7.93;;;;;;;12.94;100.00;99334.98;5158156;56;1142946;-73
2023/10/29 14:18:41;;;;;;;12.18;7.70;;;;;;;12.92;100.00;99324.20;5082440;56;1140909;-73
2023/10/29 14:23:46;;;;;;;20.60;11.13;;;;;;;12.91;100.00;99312.75;5052885;57;1140880;-74
2023/10/29 14:28:52;;;;;;;36.40;15.57;;;;;;;12.92;100.00;99325.53;5051155;56;1143255;-71
2023/10/29 14:33:57;;;;;;;138.13;50.10;;;;;;;12.94;100.00;99340.30;5087294;56;1143035;-75
2023/10/29 14:39:03;;;;;;;124.27;60.07;;;;;;;12.95;100.00;99349.92;5079608;56;1145106;-73
2023/10/29 14:44:09;;;;;;;41.07;22.33;;;;;;;12.99;100.00;99367.66;5068598;56;1145092;-76
2023/10/29 14:49:15;;;;;;;86.03;46.20;;;;;;;12.99;100.00;99355.22;5157577;56;1142842;-73
2023/10/29 14:54:21;;;;;;;48.15;22.95;;;;;;;12.99;100.00;99341.11;5090672;56;1143153;-70
2023/10/29 14:59:27;;;;;;;28.27;16.13;;;;;;;12.98;100.00;99339.48;5054444;57;1143430;-74
2023/10/29 15:04:32;;;;;;;28.70;15.43;;;;;;;12.98;100.00;99337.66;5076094;57;1143125;-73
2023/10/29 15:09:38;;;;;;;25.47;13.90;;;;;;;12.97;100.00;99342.63;5056169;57;1143060;-73
2023/10/29 15:14:50;;;;;;;12.15;6.90;;;;;;;12.98;100.00;99342.97;5055055;57;1143072;-74
2023/10/29 15:19:59;;;;;;;16.67;10.47;;;;;;;12.99;100.00;99339.29;5055420;57;1150289;-74
2023/10/29 15:25:09;;;;;;;33.23;19.73;;;;;;;13.01;100.00;99308.11;5074682;57;1143028;-77
2023/10/29 15:30:15;;;;;;;28.63;13.87;;;;;;;13.03;100.00;99327.86;5053794;57;1143028;-74
2023/10/29 15:35:21;;;;;;;16.13;7.60;;;;;;;13.04;100.00;99333.50;5054501;57;1142978;-73
2023/10/29 15:40:26;;;;;;;15.35;6.97;;;;;;;13.01;100.00;99323.20;5054699;57;1141197;-71
2023/10/29 15:45:32;;;;;;;19.23;10.10;;;;;;;13.02;100.00;99319.56;4974988;57;1141085;-74
2023/10/29 15:50:38;;;;;;;12.10;7.03;;;;;;;13.03;100.00;99315.42;4972132;58;1143584;-72
2023/10/29 15:55:43;;;;;;;11.15;6.58;;;;;;;13.04;100.00;99310.45;4991081;58;1141204;-74
2023/10/29 16:00:49;;;;;;;10.13;6.70;;;;;;;13.09;100.00;99323.73;5071746;56;1143590;-77
2023/10/29 16:05:55;;;;;;;8.55;5.78;;;;;;;13.07;100.00;99327.88;5109648;56;1141050;-74
2023/10/29 16:11:00;;;;;;;30.37;18.17;;;;;;;13.11;100.00;99303.16;5127945;56;1138602;-74
2023/10/29 16:16:07;;;;;;;20.13;13.03;;;;;;;13.14;100.00;99318.24;5042016;56;1142746;-76
2023/10/29 16:21:12;;;;;;;13.87;7.93;;;;;;;13.15;100.00;99329.23;5090544;56;1143008;-78
2023/10/29 16:26:18;;;;;;;10.37;6.30;;;;;;;13.15;100.00;99334.53;5158969;56;1141126;-76
2023/10/29 16:31:23;;;;;;;20.70;9.97;;;;;;;13.14;100.00;99330.19;5139520;56;1140885;-75
2023/10/29 16:36:29;;;;;;;9.90;6.20;;;;;;;13.15;100.00;99333.70;5076861;56;1141071;-75
2023/10/29 16:41:34;;;;;;;28.20;15.33;;;;;;;13.16;100.00;99332.22;5079825;56;1138684;-75
2023/10/29 16:46:40;;;;;;;12.67;6.67;;;;;;;13.19;100.00;99326.58;5041239;57;1143158;-75
2023/10/29 16:51:46;;;;;;;34.10;20.30;;;;;;;13.21;100.00;99330.41;5041317;57;1140925;-74
2023/10/29 16:56:52;;;;;;;32.23;18.87;;;;;;;13.22;100.00;99327.59;5041474;57;1143090;-75
2023/10/29 17:01:58;;;;;;;63.20;22.23;;;;;;;13.21;100.00;99329.08;5075978;56;1142962;-76
2023/10/29 17:07:04;;;;;;;20.03;11.87;;;;;;;13.19;100.00;99327.08;5122099;56;1142902;-71
2023/10/29 17:12:10;;;;;;;14.70;7.93;;;;;;;13.20;100.00;99334.05;5103616;56;1142768;-75
2023/10/29 17:17:15;;;;;;;21.10;10.23;;;;;;;13.24;100.00;99332.73;5157380;56;1140903;-80
2023/10/29 17:22:21;;;;;;;29.23;12.63;;;;;;;13.27;100.00;99322.63;5137046;56;1143133;-74
2023/10/29 17:27:27;;;;;;;17.57;7.90;;;;;;;13.34;100.00;99326.76;5134500;56;1143387;-72
2023/10/29 17:32:33;;;;;;;13.30;6.67;;;;;;;13.39;100.00;99321.79;5157962;56;1140802;-75
2023/10/29 17:37:39;;;;;;;20.50;9.83;;;;;;;13.44;100.00;99334.58;5105677;56;1141102;-75
2023/10/29 17:42:44;;;;;;;20.17;8.88;;;;;;;13.45;100.00;99330.90;5057800;56;1140855;-77
2023/10/29 17:47:51;;;;;;;14.00;7.90;;;;;;;13.47;100.00;99327.58;5081346;56;1140903;-78
2023/10/29 17:52:56;;;;;;;18.50;9.00;;;;;;;13.47;100.00;99315.63;5116418;56;1141039;-71
2023/10/29 17:58:02;;;;;;;15.50;8.03;;;;;;;13.46;100.00;99304.17;5052648;56;1140944;-75
2023/10/29 18:03:08;;;;;;;17.20;7.33;;;;;;;13.47;100.00;99307.16;5059429;56;1140896;-76
2023/10/29 18:08:13;;;;;;;35.37;16.30;;;;;;;13.48;100.00;99307.99;5146841;56;1140857;-76
2023/10/29 18:13:19;;;;;;;17.23;9.77;;;;;;;13.51;100.00;99302.35;5105483;56;1143036;-74
2023/10/29 18:18:25;;;;;;;15.60;7.70;;;;;;;13.53;100.00;99296.38;5125761;56;1141005;-76
2023/10/29 18:23:31;;;;;;;10.97;7.03;;;;;;;13.54;100.00;99303.35;5146358;56;1140889;-73
2023/10/29 18:28:36;;;;;;;12.97;6.20;;;;;;;13.53;100.00;99305.67;5125193;56;1140929;-74
2023/10/29 18:33:42;;;;;;;15.17;5.37;;;;;;;13.54;100.00;99295.39;5126561;56;1141094;-77
2023/10/29 18:38:50;;;;;;;22.58;9.95;;;;;;;13.49;100.00;99297.20;5074491;56;1141265;-76
2023/10/29 18:43:57;;;;;;;11.85;6.28;;;;;;;13.57;100.00;99313.16;5061285;56;1140887;-78
2023/10/29 18:49:02;;;;;;;14.17;5.03;;;;;;;13.58;100.00;99322.78;5041789;57;1140975;-75
2023/10/29 18:54:08;;;;;;;14.00;7.33;;;;;;;13.62;100.00;99317.45;5069423;56;1141024;-74
2023/10/29 18:59:14;;;;;;;11.67;6.10;;;;;;;13.63;100.00;99304.49;5112518;56;1141079;-75
2023/10/29 19:04:19;;;;;;;15.80;6.77;;;;;;;13.65;100.00;99303.83;5106965;56;1141256;-76
2023/10/29 19:09:25;;;;;;;12.77;5.67;;;;;;;13.65;100.00;99309.64;5124896;56;1141042;-72
2023/10/29 19:14:35;;;;;;;8.43;4.93;;;;;;;13.66;100.00;99304.66;5145993;56;1140853;-70
2023/10/29 19:19:40;;;;;;;14.07;7.37;;;;;;;13.66;100.00;99300.18;5126628;56;1138939;-74
2023/10/29 19:24:46;;;;;;;15.50;7.72;;;;;;;13.67;100.00;99288.55;5115593;56;1140727;-74
2023/10/29 19:29:56;;;;;;;11.70;5.43;;;;;;;13.67;100.00;99298.36;5118197;56;1140829;-71
2023/10/29 19:35:02;;;;;;;13.20;6.17;;;;;;;13.69;100.00;99297.69;5146418;56;1140679;-71
2023/10/29 19:40:08;;;;;;;20.30;8.67;;;;;;;13.67;100.00;99300.52;5078166;56;1140490;-71
2023/10/29 19:45:14;;;;;;;16.27;7.50;;;;;;;13.66;100.00;99290.05;5126150;56;1140973;-75
2023/10/29 19:50:20;;;;;;;16.00;5.13;;;;;;;13.64;100.00;99281.41;5062560;56;1140887;-73
2023/10/29 19:55:26;;;;;;;9.40;5.00;;;;;;;13.62;100.00;99277.59;5041460;56;1140977;-76
2023/10/29 20:00:32;;;;;;;15.97;5.73;;;;;;;13.62;100.00;99289.55;5042063;57;1138772;-74
2023/10/29 20:05:37;;;;;;;7.40;5.20;;;;;;;13.62;100.00;99278.09;5116655;56;1140812;-74
2023/10/29 20:10:43;;;;;;;10.37;5.03;;;;;;;13.62;100.00;99281.58;5141963;56;1139000;-73
2023/10/29 20:15:53;;;;;;;11.00;4.65;;;;;;;13.60;100.00;99271.62;5142131;56;1141017;-74
2023/10/29 20:20:59;;;;;;;9.65;4.80;;;;;;;13.58;100.00;99282.94;5141897;56;1140991;-71
2023/10/29 20:26:19;;;;;;;12.80;5.63;;;;;;;13.56;100.00;99291.57;5162835;56;1138800;-74
2023/10/29 20:31:25;;;;;;;15.63;5.77;;;;;;;13.57;100.00;99293.73;5142432;56;1140898;-75
2023/10/29 20:36:31;;;;;;;10.83;4.27;;;;;;;13.58;100.00;99290.08;5140568;56;1141047;-71
2023/10/29 20:41:38;;;;;;;9.90;5.10;;;;;;;13.53;100.00;99301.20;5152663;56;1140903;-76
2023/10/29 20:46:44;;;;;;;9.70;4.50;;;;;;;13.51;100.00;99304.52;5132964;56;1138868;-73
2023/10/29 20:51:49;;;;;;;7.40;4.30;;;;;;;13.49;100.00;99307.00;5134459;56;1138696;-76
2023/10/29 20:56:55;;;;;;;6.23;4.20;;;;;;;13.49;100.00;99318.45;5143145;56;1138898;-72
2023/10/29 21:02:01;;;;;;;6.60;3.43;;;;;;;13.50;100.00;99320.62;5141441;56;1138710;-74
2023/10/29 21:07:06;;;;;;;6.67;3.80;;;;;;;13.49;100.00;99319.78;5109966;56;1138797;-75
2023/10/29 21:12:12;;;;;;;11.17;4.80;;;;;;;13.45;100.00;99329.57;5095354;56;1138802;-76
2023/10/29 21:17:17;;;;;;;11.10;3.97;;;;;;;13.43;100.00;99348.36;5078236;56;1141156;-75
2023/10/29 21:22:23;;;;;;;9.10;4.20;;;;;;;13.40;100.00;99365.94;5056683;56;1140824;-75
2023/10/29 21:27:29;;;;;;;11.53;4.00;;;;;;;13.38;100.00;99374.57;5117053;56;1138675;-73
2023/10/29 21:32:34;;;;;;;5.47;3.70;;;;;;;13.35;100.00;99390.33;5073396;56;1140817;-75
2023/10/29 21:37:40;;;;;;;13.20;2.87;;;;;;;13.34;100.00;99400.62;5075851;56;1138912;-73
2023/10/29 21:42:45;;;;;;;6.17;2.97;;;;;;;13.40;100.00;99400.97;5126765;56;1141093;-72
2023/10/29 21:47:51;;;;;;;5.00;2.43;;;;;;;13.56;100.00;99406.30;5120273;56;1138983;-75
2023/10/29 21:52:56;;;;;;;4.75;1.75;;;;;;;13.64;100.00;99411.60;5062423;57;1138762;-75
2023/10/29 21:58:02;;;;;;;4.57;2.37;;;;;;;13.66;100.00;99411.77;5094601;56;1138615;-75
2023/10/29 22:03:08;;;;;;;5.90;2.00;;;;;;;13.64;100.00;99404.46;5125282;56;1138915;-75
2023/10/29 22:08:13;;;;;;;4.40;2.33;;;;;;;13.59;100.00;99408.13;5146718;56;1138694;-73
2023/10/29 22:13:19;;;;;;;3.57;2.33;;;;;;;13.57;100.00;99427.88;5135550;56;1138814;-72
2023/10/29 22:18:25;;;;;;;2.43;2.03;;;;;;;13.52;100.00;99420.40;5138207;56;1138680;-72
2023/10/29 22:23:31;;;;;;;5.47;2.03;;;;;;;13.53;100.00;99402.14;5157392;56;1138721;-72
2023/10/29 22:28:37;;;;;;;4.27;2.00;;;;;;;13.57;100.00;99393.35;5137751;56;1138623;-75
2023/10/29 22:33:44;;;;;;;6.75;2.27;;;;;;;13.58;100.00;99398.50;5154610;56;1138994;-74
2023/10/29 22:38:49;;;;;;;3.15;2.02;;;;;;;13.59;100.00;99397.51;5122490;56;1138878;-72
2023/10/29 22:43:55;;;;;;;3.67;2.20;;;;;;;13.57;100.00;99384.05;5154254;56;1138943;-74
2023/10/29 22:49:00;;;;;;;4.42;2.83;;;;;;;13.52;100.00;99378.39;5053658;56;1138964;-75
2023/10/29 22:54:06;;;;;;;9.77;3.57;;;;;;;13.48;100.00;99355.80;5083015;56;1138796;-74
2023/10/29 22:59:12;;;;;;;8.07;4.13;;;;;;;13.42;100.00;99352.01;5072064;57;1138814;-74
2023/10/29 23:04:17;;;;;;;13.43;8.33;;;;;;;13.37;100.00;99359.13;5123567;56;1138754;-71